createdAt,value
2018-12-26T00:01:51.253Z,4.90
2018-12-26T00:06:58.588Z,5.00
2018-12-26T00:12:05.433Z,5.10
2018-12-26T00:17:10.512Z,5.10
2018-12-26T00:22:15.577Z,5.20
2018-12-26T00:27:20.672Z,5.20
2018-12-26T00:32:27.536Z,5.30
2018-12-26T00:37:32.708Z,5.30
2018-12-26T00:42:38.393Z,5.30
2018-12-26T00:47:43.431Z,5.40
2018-12-26T00:52:49.953Z,5.40
2018-12-26T00:57:54.970Z,5.40
2018-12-26T01:02:59.976Z,5.40
2018-12-26T01:08:04.968Z,5.40
2018-12-26T01:13:10.031Z,5.40
2018-12-26T01:18:15.028Z,5.50
2018-12-26T01:23:20.035Z,5.50
2018-12-26T01:28:25.060Z,5.50
2018-12-26T01:33:30.071Z,5.50
2018-12-26T01:38:35.091Z,5.40
2018-12-26T01:43:40.401Z,5.30
2018-12-26T01:48:46.627Z,5.20
2018-12-26T01:53:51.647Z,5.20
2018-12-26T01:58:56.667Z,5.10
2018-12-26T02:04:01.739Z,5.10
2018-12-26T02:09:08.596Z,5.10
2018-12-26T02:14:13.612Z,5.20
2018-12-26T02:19:21.017Z,5.20
2018-12-26T02:24:26.037Z,5.20
2018-12-26T02:29:31.031Z,5.30
2018-12-26T02:34:36.037Z,5.30
2018-12-26T02:39:41.075Z,5.30
2018-12-26T02:44:46.084Z,5.30
2018-12-26T02:49:51.091Z,5.20
2018-12-26T02:54:56.294Z,5.20
2018-12-26T03:00:01.482Z,5.10
2018-12-26T03:05:06.816Z,5.20
2018-12-26T03:10:11.848Z,5.20
2018-12-26T03:15:16.856Z,5.20
2018-12-26T03:20:21.888Z,5.30
2018-12-26T03:25:26.911Z,5.30
2018-12-26T03:30:31.920Z,5.40
2018-12-26T03:35:36.922Z,5.40
2018-12-26T03:40:41.973Z,5.40
2018-12-26T03:45:47.480Z,5.50
2018-12-26T03:50:52.492Z,5.50
2018-12-26T03:55:57.491Z,5.50
2018-12-26T04:01:02.536Z,5.50
2018-12-26T04:06:07.548Z,5.60
2018-12-26T04:11:12.566Z,5.60
2018-12-26T04:16:17.607Z,5.60
2018-12-26T04:21:22.940Z,5.70
2018-12-26T04:26:27.952Z,5.70
2018-12-26T04:31:32.960Z,5.80
2018-12-26T04:36:37.977Z,5.90
2018-12-26T04:41:46.146Z,5.90
2018-12-26T04:46:51.380Z,6.00
2018-12-26T04:51:56.402Z,6.00
2018-12-26T04:57:01.417Z,6.00
2018-12-26T05:02:06.847Z,6.00
2018-12-26T05:07:11.872Z,6.00
2018-12-26T05:12:16.909Z,6.00
2018-12-26T05:17:21.936Z,6.00
2018-12-26T05:22:26.948Z,6.00
2018-12-26T05:27:34.276Z,6.00
2018-12-26T05:32:38.667Z,6.00
2018-12-26T05:37:43.685Z,6.10
2018-12-26T05:42:48.687Z,6.10
2018-12-26T05:47:53.720Z,6.10
2018-12-26T05:52:58.715Z,6.10
2018-12-26T05:58:03.727Z,6.10
2018-12-26T06:03:08.791Z,6.10
2018-12-26T06:08:13.784Z,6.10
2018-12-26T06:13:18.784Z,6.10
2018-12-26T06:18:23.787Z,6.20
2018-12-26T06:23:29.084Z,6.20
2018-12-26T06:28:34.093Z,6.30
2018-12-26T06:33:39.107Z,6.30
2018-12-26T06:38:44.137Z,6.30
2018-12-26T06:43:49.183Z,6.30
2018-12-26T06:48:54.178Z,6.30
2018-12-26T06:53:59.185Z,6.30
2018-12-26T06:59:04.201Z,6.30
2018-12-26T07:04:09.292Z,6.40
2018-12-26T07:09:14.314Z,6.40
2018-12-26T07:14:19.327Z,6.40
2018-12-26T07:19:24.352Z,6.40
2018-12-26T07:24:29.358Z,6.40
2018-12-26T07:29:34.372Z,6.40
2018-12-26T07:34:42.263Z,6.40
2018-12-26T07:39:46.008Z,6.50
2018-12-26T07:44:51.015Z,6.50
2018-12-26T07:49:56.076Z,6.50
2018-12-26T07:55:01.074Z,6.60
2018-12-26T08:00:07.245Z,6.60
2018-12-26T08:05:12.281Z,6.70
2018-12-26T08:10:17.316Z,6.70
2018-12-26T08:15:22.332Z,6.80
2018-12-26T08:20:27.340Z,6.80
2018-12-26T08:25:32.378Z,6.90
2018-12-26T08:30:37.428Z,6.90
2018-12-26T08:35:42.433Z,6.90
2018-12-26T08:40:47.452Z,7.00
2018-12-26T08:45:52.464Z,7.00
2018-12-26T08:50:57.564Z,7.10
2018-12-26T08:56:02.563Z,7.10
2018-12-26T09:01:08.111Z,7.10
2018-12-26T09:06:13.276Z,7.20
2018-12-26T09:11:18.267Z,7.20
2018-12-26T09:16:23.285Z,7.30
2018-12-26T09:21:28.287Z,7.30
2018-12-26T09:26:36.289Z,7.30
2018-12-26T09:31:41.317Z,7.30
2018-12-26T09:36:46.315Z,7.40
2018-12-26T09:41:51.344Z,7.50
2018-12-26T09:46:56.410Z,7.60
2018-12-26T09:52:01.406Z,7.60
2018-12-26T09:57:06.457Z,7.60
2018-12-26T10:02:11.472Z,7.60
2018-12-26T10:07:16.559Z,7.70
2018-12-26T10:12:21.571Z,7.60
2018-12-26T10:17:26.584Z,7.60
2018-12-26T10:22:31.594Z,7.60
2018-12-26T10:27:36.647Z,7.60
2018-12-26T10:32:41.650Z,7.70
2018-12-26T10:37:46.668Z,7.70
2018-12-26T10:42:51.693Z,7.70
2018-12-26T10:47:56.718Z,7.70
2018-12-26T10:53:01.727Z,7.70
2018-12-26T10:58:06.721Z,7.70
2018-12-26T11:03:11.759Z,7.70
2018-12-26T11:08:16.751Z,7.70
2018-12-26T11:13:21.802Z,7.70
2018-12-26T11:18:26.807Z,7.70
2018-12-26T11:23:31.877Z,7.70
2018-12-26T11:28:36.908Z,7.70
2018-12-26T11:33:41.924Z,7.70
2018-12-26T11:38:47.375Z,7.70
2018-12-26T11:43:52.397Z,7.70
2018-12-26T11:48:57.443Z,7.60
2018-12-26T11:54:14.221Z,7.60
2018-12-26T11:59:27.002Z,7.60
2018-12-26T12:04:25.951Z,7.60
2018-12-26T12:09:30.986Z,7.60
2018-12-26T12:14:36.021Z,7.70
2018-12-26T12:19:41.094Z,7.70
2018-12-26T12:24:46.124Z,7.70
2018-12-26T12:29:51.181Z,7.70
2018-12-26T12:34:56.207Z,7.70
2018-12-26T12:40:01.274Z,7.80
2018-12-26T12:45:06.803Z,7.80
2018-12-26T12:50:11.909Z,7.80
2018-12-26T12:55:17.739Z,7.80
2018-12-26T13:00:22.781Z,7.80
2018-12-26T13:05:29.289Z,7.90
2018-12-26T13:10:34.345Z,7.90
2018-12-26T13:15:39.380Z,7.80
2018-12-26T13:20:44.444Z,7.80
2018-12-26T13:25:49.438Z,7.80
2018-12-26T13:30:55.379Z,7.80
2018-12-26T13:36:00.453Z,7.80
2018-12-26T13:41:05.486Z,7.90
2018-12-26T13:46:10.514Z,7.90
2018-12-26T13:51:15.569Z,7.90
2018-12-26T13:56:20.590Z,7.90
2018-12-26T14:01:25.597Z,7.80
2018-12-26T14:06:30.615Z,7.80
2018-12-26T14:11:35.591Z,7.80
2018-12-26T14:16:40.820Z,7.70
2018-12-26T14:21:45.952Z,7.70
2018-12-26T14:26:51.130Z,7.70
2018-12-26T14:31:56.116Z,7.70
2018-12-26T14:37:01.230Z,7.70
2018-12-26T14:42:06.268Z,7.60
2018-12-26T14:47:11.267Z,7.70
2018-12-26T14:52:16.271Z,7.60
2018-12-26T14:57:21.270Z,7.60
2018-12-26T15:02:26.287Z,7.60
2018-12-26T15:07:31.301Z,7.60
2018-12-26T15:12:36.335Z,7.60
2018-12-26T15:17:41.357Z,7.60
2018-12-26T15:22:46.392Z,7.50
2018-12-26T15:27:51.460Z,7.50
2018-12-26T15:32:56.473Z,7.50
2018-12-26T15:38:01.470Z,7.40
2018-12-26T15:43:06.496Z,7.50
2018-12-26T15:48:11.540Z,7.50
2018-12-26T15:53:16.561Z,7.50
2018-12-26T15:58:21.584Z,7.50
2018-12-26T16:03:26.612Z,7.40
2018-12-26T16:08:31.812Z,7.40
2018-12-26T16:13:36.820Z,7.40
2018-12-26T16:18:41.832Z,7.40
2018-12-26T16:23:46.844Z,7.50
2018-12-26T16:28:51.936Z,7.40
2018-12-26T16:33:56.955Z,7.40
2018-12-26T16:39:02.112Z,7.40
2018-12-26T16:44:07.172Z,7.40
2018-12-26T16:49:13.947Z,7.30
2018-12-26T16:54:18.976Z,7.30
2018-12-26T16:59:24.056Z,7.30
2018-12-26T17:04:29.084Z,7.20
2018-12-26T17:09:34.160Z,7.20
2018-12-26T17:14:39.274Z,7.20
2018-12-26T17:19:44.627Z,7.20
2018-12-26T17:24:49.658Z,7.20
2018-12-26T17:29:54.713Z,7.20
2018-12-26T17:34:59.730Z,7.20
2018-12-26T17:40:06.131Z,7.10
2018-12-26T17:45:12.753Z,7.10
2018-12-26T17:50:46.395Z,7.10
2018-12-26T17:56:13.223Z,7.20
2018-12-26T18:01:32.401Z,7.20
2018-12-26T18:06:37.427Z,7.10
2018-12-26T18:11:42.445Z,7.20
2018-12-26T18:16:47.484Z,7.10
2018-12-26T18:21:52.484Z,7.10
2018-12-26T18:26:57.518Z,7.10
2018-12-26T18:32:02.527Z,7.10
2018-12-26T18:37:07.541Z,7.10
2018-12-26T18:42:12.560Z,7.00
2018-12-26T18:47:17.566Z,7.00
2018-12-26T18:52:22.605Z,7.00
2018-12-26T18:57:27.644Z,6.90
2018-12-26T19:02:32.632Z,6.90
2018-12-26T19:07:37.760Z,6.90
2018-12-26T19:12:42.749Z,6.80
2018-12-26T19:17:47.763Z,6.80
2018-12-26T19:22:52.749Z,6.70
2018-12-26T19:27:57.732Z,6.80
2018-12-26T19:33:02.723Z,6.80
2018-12-26T19:38:07.720Z,6.80
2018-12-26T19:43:12.717Z,6.70
2018-12-26T19:48:18.505Z,6.70
2018-12-26T19:53:23.556Z,6.70
2018-12-26T19:58:29.353Z,6.70
2018-12-26T20:03:34.333Z,6.70
2018-12-26T20:08:39.336Z,6.70
2018-12-26T20:13:44.327Z,6.70
2018-12-26T20:18:49.331Z,6.70
2018-12-26T20:23:54.333Z,6.60
2018-12-26T20:28:59.331Z,6.60
2018-12-26T20:34:04.336Z,6.60
2018-12-26T20:39:09.360Z,6.60
2018-12-26T20:44:14.364Z,6.50
2018-12-26T20:49:19.364Z,6.50
2018-12-26T20:54:24.412Z,6.50
2018-12-26T20:59:29.467Z,6.40
2018-12-26T21:04:34.439Z,6.40
2018-12-26T21:09:39.408Z,6.40
2018-12-26T21:14:44.711Z,6.30
2018-12-26T21:19:49.690Z,6.20
2018-12-26T21:24:54.711Z,6.10
2018-12-26T21:29:59.799Z,6.00
2018-12-26T21:35:05.279Z,6.00
2018-12-26T21:40:10.945Z,6.00
2018-12-26T21:45:15.944Z,5.90
2018-12-26T21:50:21.249Z,5.80
2018-12-26T21:55:26.293Z,5.80
2018-12-26T22:00:31.481Z,5.70
2018-12-26T22:05:36.469Z,5.70
2018-12-26T22:10:41.476Z,5.70
2018-12-26T22:15:46.475Z,5.70
2018-12-26T22:20:51.485Z,5.70
2018-12-26T22:25:56.596Z,5.60
2018-12-26T22:31:01.592Z,5.70
2018-12-26T22:36:06.581Z,5.70
2018-12-26T22:41:14.261Z,5.70
2018-12-26T22:46:19.290Z,5.70
2018-12-26T22:51:24.311Z,5.70
2018-12-26T22:56:29.874Z,5.70
2018-12-26T23:01:34.876Z,5.70
2018-12-26T23:06:39.888Z,5.70
2018-12-26T23:11:44.880Z,5.60
2018-12-26T23:16:49.868Z,5.60
2018-12-26T23:21:55.461Z,5.60
2018-12-26T23:27:00.468Z,5.60
2018-12-26T23:32:05.459Z,5.60
2018-12-26T23:37:10.710Z,5.50
2018-12-26T23:42:15.669Z,5.60
2018-12-26T23:47:24.427Z,5.50
2018-12-26T23:52:29.478Z,5.50
2018-12-26T23:57:34.824Z,5.50
